sensor_id;sensor_type;location;lat;lon;timestamp;temperature;humidity
4908;DHT22;64375;51.540;7.364;2023-06-10T00:02:23;26.50;76.80
4908;DHT22;64375;51.540;7.364;2023-06-10T00:04:51;26.40;76.90
4908;DHT22;64375;51.540;7.364;2023-06-10T00:07:23;26.40;77.00
4908;DHT22;64375;51.540;7.364;2023-06-10T00:09:51;26.30;76.60
4908;DHT22;64375;51.540;7.364;2023-06-10T00:12:21;26.30;77.00
4908;DHT22;64375;51.540;7.364;2023-06-10T00:14:49;26.30;77.20
4908;DHT22;64375;51.540;7.364;2023-06-10T00:17:20;26.30;77.30
4908;DHT22;64375;51.540;7.364;2023-06-10T00:19:50;26.30;77.20
4908;DHT22;64375;51.540;7.364;2023-06-10T00:22:18;26.30;77.20
4908;DHT22;64375;51.540;7.364;2023-06-10T00:24:47;26.30;77.20
4908;DHT22;64375;51.540;7.364;2023-06-10T00:27:15;26.30;76.90
4908;DHT22;64375;51.540;7.364;2023-06-10T00:29:48;26.20;77.20
4908;DHT22;64375;51.540;7.364;2023-06-10T00:32:16;26.20;77.20
4908;DHT22;64375;51.540;7.364;2023-06-10T00:34:47;26.20;77.00
4908;DHT22;64375;51.540;7.364;2023-06-10T00:37:15;26.10;76.40
4908;DHT22;64375;51.540;7.364;2023-06-10T00:39:47;26.10;77.40
4908;DHT22;64375;51.540;7.364;2023-06-10T00:42:18;26.10;77.50
4908;DHT22;64375;51.540;7.364;2023-06-10T00:44:47;26.10;77.60
4908;DHT22;64375;51.540;7.364;2023-06-10T00:47:14;26.00;77.60
4908;DHT22;64375;51.540;7.364;2023-06-10T00:49:50;26.10;77.70
4908;DHT22;64375;51.540;7.364;2023-06-10T00:52:28;26.00;77.60
4908;DHT22;64375;51.540;7.364;2023-06-10T00:54:57;26.00;77.70
4908;DHT22;64375;51.540;7.364;2023-06-10T00:57:29;25.90;77.50
4908;DHT22;64375;51.540;7.364;2023-06-10T00:59:57;25.90;77.80
4908;DHT22;64375;51.540;7.364;2023-06-10T01:02:25;25.80;77.70
4908;DHT22;64375;51.540;7.364;2023-06-10T01:04:53;25.80;78.00
4908;DHT22;64375;51.540;7.364;2023-06-10T01:07:25;25.90;77.90
4908;DHT22;64375;51.540;7.364;2023-06-10T01:10:19;25.90;76.70
4908;DHT22;64375;51.540;7.364;2023-06-10T01:12:58;25.80;77.50
4908;DHT22;64375;51.540;7.364;2023-06-10T01:15:31;25.80;78.00
4908;DHT22;64375;51.540;7.364;2023-06-10T01:18:03;25.80;78.00
4908;DHT22;64375;51.540;7.364;2023-06-10T01:20:39;25.80;77.00
4908;DHT22;64375;51.540;7.364;2023-06-10T01:23:11;25.60;77.80
4908;DHT22;64375;51.540;7.364;2023-06-10T01:25:41;25.60;78.20
4908;DHT22;64375;51.540;7.364;2023-06-10T01:28:17;25.60;78.00
4908;DHT22;64375;51.540;7.364;2023-06-10T01:30:59;25.50;77.60
4908;DHT22;64375;51.540;7.364;2023-06-10T01:33:32;25.50;78.50
4908;DHT22;64375;51.540;7.364;2023-06-10T01:36:10;25.50;78.40
4908;DHT22;64375;51.540;7.364;2023-06-10T01:38:43;25.40;78.30
4908;DHT22;64375;51.540;7.364;2023-06-10T01:41:22;25.50;78.60
4908;DHT22;64375;51.540;7.364;2023-06-10T01:43:54;25.50;78.70
4908;DHT22;64375;51.540;7.364;2023-06-10T01:46:25;25.50;78.30
4908;DHT22;64375;51.540;7.364;2023-06-10T01:48:56;25.50;78.60
4908;DHT22;64375;51.540;7.364;2023-06-10T01:51:39;25.40;78.50
4908;DHT22;64375;51.540;7.364;2023-06-10T01:54:14;25.40;78.20
4908;DHT22;64375;51.540;7.364;2023-06-10T01:56:45;25.30;78.70
4908;DHT22;64375;51.540;7.364;2023-06-10T01:59:13;25.30;78.70
4908;DHT22;64375;51.540;7.364;2023-06-10T02:01:46;25.30;78.50
4908;DHT22;64375;51.540;7.364;2023-06-10T02:04:17;25.20;78.60
4908;DHT22;64375;51.540;7.364;2023-06-10T02:06:48;25.30;78.90
4908;DHT22;64375;51.540;7.364;2023-06-10T02:09:19;25.10;79.00
4908;DHT22;64375;51.540;7.364;2023-06-10T02:11:47;25.10;78.90
4908;DHT22;64375;51.540;7.364;2023-06-10T02:14:20;25.10;79.30
4908;DHT22;64375;51.540;7.364;2023-06-10T02:16:48;25.10;79.40
4908;DHT22;64375;51.540;7.364;2023-06-10T02:19:30;25.00;78.90
4908;DHT22;64375;51.540;7.364;2023-06-10T02:21:58;25.00;79.20
4908;DHT22;64375;51.540;7.364;2023-06-10T02:24:30;25.00;79.60
4908;DHT22;64375;51.540;7.364;2023-06-10T02:27:01;25.00;79.60
4908;DHT22;64375;51.540;7.364;2023-06-10T02:29:39;25.00;79.40
4908;DHT22;64375;51.540;7.364;2023-06-10T02:32:08;25.00;79.20
4908;DHT22;64375;51.540;7.364;2023-06-10T02:34:37;24.80;78.70
4908;DHT22;64375;51.540;7.364;2023-06-10T02:37:15;24.80;79.70
4908;DHT22;64375;51.540;7.364;2023-06-10T02:39:47;24.80;79.90
4908;DHT22;64375;51.540;7.364;2023-06-10T02:42:15;24.80;80.00
4908;DHT22;64375;51.540;7.364;2023-06-10T02:44:46;24.80;79.50
4908;DHT22;64375;51.540;7.364;2023-06-10T02:47:14;24.70;79.50
4908;DHT22;64375;51.540;7.364;2023-06-10T02:49:55;24.70;80.00
4908;DHT22;64375;51.540;7.364;2023-06-10T02:52:23;24.70;80.10
4908;DHT22;64375;51.540;7.364;2023-06-10T02:54:55;24.70;80.20
4908;DHT22;64375;51.540;7.364;2023-06-10T02:57:37;24.70;80.20
4908;DHT22;64375;51.540;7.364;2023-06-10T03:00:06;24.60;80.20
4908;DHT22;64375;51.540;7.364;2023-06-10T03:02:37;24.70;80.50
4908;DHT22;64375;51.540;7.364;2023-06-10T03:05:18;24.60;79.40
4908;DHT22;64375;51.540;7.364;2023-06-10T03:07:46;24.60;80.40
4908;DHT22;64375;51.540;7.364;2023-06-10T03:10:15;24.40;79.60
4908;DHT22;64375;51.540;7.364;2023-06-10T03:12:43;24.40;79.50
4908;DHT22;64375;51.540;7.364;2023-06-10T03:15:14;24.40;80.40
4908;DHT22;64375;51.540;7.364;2023-06-10T03:17:53;24.30;79.30
4908;DHT22;64375;51.540;7.364;2023-06-10T03:20:21;24.30;80.00
4908;DHT22;64375;51.540;7.364;2023-06-10T03:22:50;24.20;80.70
4908;DHT22;64375;51.540;7.364;2023-06-10T03:25:34;24.40;81.10
4908;DHT22;64375;51.540;7.364;2023-06-10T03:28:02;24.40;80.80
4908;DHT22;64375;51.540;7.364;2023-06-10T03:30:33;24.40;80.90
4908;DHT22;64375;51.540;7.364;2023-06-10T03:33:01;24.40;81.60
4908;DHT22;64375;51.540;7.364;2023-06-10T03:35:32;24.40;81.50
4908;DHT22;64375;51.540;7.364;2023-06-10T03:38:01;24.40;80.60
4908;DHT22;64375;51.540;7.364;2023-06-10T03:40:32;24.20;80.10
4908;DHT22;64375;51.540;7.364;2023-06-10T03:43:04;24.20;80.50
4908;DHT22;64375;51.540;7.364;2023-06-10T03:45:32;24.10;79.90
4908;DHT22;64375;51.540;7.364;2023-06-10T03:48:03;24.00;80.30
4908;DHT22;64375;51.540;7.364;2023-06-10T03:50:33;24.00;80.50
4908;DHT22;64375;51.540;7.364;2023-06-10T03:53:03;23.90;81.00
4908;DHT22;64375;51.540;7.364;2023-06-10T03:55:40;23.90;81.40
4908;DHT22;64375;51.540;7.364;2023-06-10T03:58:09;23.90;81.60
4908;DHT22;64375;51.540;7.364;2023-06-10T04:00:39;23.90;81.40
4908;DHT22;64375;51.540;7.364;2023-06-10T04:03:15;23.90;81.40
4908;DHT22;64375;51.540;7.364;2023-06-10T04:05:51;23.90;80.80
4908;DHT22;64375;51.540;7.364;2023-06-10T04:08:22;23.90;81.30
4908;DHT22;64375;51.540;7.364;2023-06-10T04:10:54;23.70;80.50
4908;DHT22;64375;51.540;7.364;2023-06-10T04:13:24;23.60;80.40
4908;DHT22;64375;51.540;7.364;2023-06-10T04:16:01;23.60;80.20
4908;DHT22;64375;51.540;7.364;2023-06-10T04:18:30;23.50;80.10
4908;DHT22;64375;51.540;7.364;2023-06-10T04:21:13;23.10;81.00
4908;DHT22;64375;51.540;7.364;2023-06-10T04:23:44;22.90;81.70
4908;DHT22;64375;51.540;7.364;2023-06-10T04:26:12;23.00;82.40
4908;DHT22;64375;51.540;7.364;2023-06-10T04:28:43;23.00;83.30
4908;DHT22;64375;51.540;7.364;2023-06-10T04:31:11;23.10;81.90
4908;DHT22;64375;51.540;7.364;2023-06-10T04:33:44;23.10;82.50
4908;DHT22;64375;51.540;7.364;2023-06-10T04:36:12;23.00;82.10
4908;DHT22;64375;51.540;7.364;2023-06-10T04:38:41;23.00;82.50
4908;DHT22;64375;51.540;7.364;2023-06-10T04:41:12;23.10;83.10
4908;DHT22;64375;51.540;7.364;2023-06-10T04:43:41;22.90;81.80
4908;DHT22;64375;51.540;7.364;2023-06-10T04:46:09;22.90;82.40
4908;DHT22;64375;51.540;7.364;2023-06-10T04:48:37;22.90;81.80
4908;DHT22;64375;51.540;7.364;2023-06-10T04:51:05;22.80;82.10
4908;DHT22;64375;51.540;7.364;2023-06-10T04:53:33;22.90;81.90
4908;DHT22;64375;51.540;7.364;2023-06-10T04:56:04;22.70;81.00
4908;DHT22;64375;51.540;7.364;2023-06-10T04:58:32;22.30;82.80
4908;DHT22;64375;51.540;7.364;2023-06-10T05:01:01;22.30;83.60
4908;DHT22;64375;51.540;7.364;2023-06-10T05:03:32;22.20;82.20
4908;DHT22;64375;51.540;7.364;2023-06-10T05:06:01;21.90;83.40
4908;DHT22;64375;51.540;7.364;2023-06-10T05:08:29;22.00;85.20
4908;DHT22;64375;51.540;7.364;2023-06-10T05:10:57;21.80;83.70
4908;DHT22;64375;51.540;7.364;2023-06-10T05:13:31;21.90;84.20
4908;DHT22;64375;51.540;7.364;2023-06-10T05:16:01;22.00;85.00
4908;DHT22;64375;51.540;7.364;2023-06-10T05:18:32;22.20;83.80
4908;DHT22;64375;51.540;7.364;2023-06-10T05:21:03;22.20;83.90
4908;DHT22;64375;51.540;7.364;2023-06-10T05:23:37;22.30;84.20
4908;DHT22;64375;51.540;7.364;2023-06-10T05:26:05;22.50;83.50
4908;DHT22;64375;51.540;7.364;2023-06-10T05:28:38;22.20;82.50
4908;DHT22;64375;51.540;7.364;2023-06-10T05:31:07;22.30;85.20
4908;DHT22;64375;51.540;7.364;2023-06-10T05:33:35;22.20;82.80
4908;DHT22;64375;51.540;7.364;2023-06-10T05:36:09;22.30;82.90
4908;DHT22;64375;51.540;7.364;2023-06-10T05:38:39;22.30;83.80
4908;DHT22;64375;51.540;7.364;2023-06-10T05:41:10;22.30;83.00
4908;DHT22;64375;51.540;7.364;2023-06-10T05:43:38;22.40;83.30
4908;DHT22;64375;51.540;7.364;2023-06-10T05:46:10;22.50;81.60
4908;DHT22;64375;51.540;7.364;2023-06-10T05:48:44;22.40;82.50
4908;DHT22;64375;51.540;7.364;2023-06-10T05:51:12;22.60;82.00
4908;DHT22;64375;51.540;7.364;2023-06-10T05:53:40;22.50;81.40
4908;DHT22;64375;51.540;7.364;2023-06-10T05:56:08;22.60;81.40
4908;DHT22;64375;51.540;7.364;2023-06-10T05:58:36;22.60;82.20
4908;DHT22;64375;51.540;7.364;2023-06-10T06:01:04;22.70;82.00
4908;DHT22;64375;51.540;7.364;2023-06-10T06:03:38;22.50;81.60
4908;DHT22;64375;51.540;7.364;2023-06-10T06:06:09;22.50;82.50
4908;DHT22;64375;51.540;7.364;2023-06-10T06:08:40;22.30;83.40
4908;DHT22;64375;51.540;7.364;2023-06-10T06:11:14;22.50;83.60
4908;DHT22;64375;51.540;7.364;2023-06-10T06:13:48;22.60;83.30
4908;DHT22;64375;51.540;7.364;2023-06-10T06:16:19;22.60;83.70
4908;DHT22;64375;51.540;7.364;2023-06-10T06:18:51;22.80;83.80
4908;DHT22;64375;51.540;7.364;2023-06-10T06:21:22;22.90;82.50
4908;DHT22;64375;51.540;7.364;2023-06-10T06:23:49;23.00;81.30
4908;DHT22;64375;51.540;7.364;2023-06-10T06:26:20;22.90;82.10
4908;DHT22;64375;51.540;7.364;2023-06-10T06:28:55;23.00;83.30
4908;DHT22;64375;51.540;7.364;2023-06-10T06:31:25;23.00;81.40
4908;DHT22;64375;51.540;7.364;2023-06-10T06:33:54;23.10;81.60
4908;DHT22;64375;51.540;7.364;2023-06-10T06:36:25;23.00;81.30
4908;DHT22;64375;51.540;7.364;2023-06-10T06:39:02;23.00;80.90
4908;DHT22;64375;51.540;7.364;2023-06-10T06:41:35;23.10;81.20
4908;DHT22;64375;51.540;7.364;2023-06-10T06:44:03;23.10;80.50
4908;DHT22;64375;51.540;7.364;2023-06-10T06:46:34;22.80;81.90
4908;DHT22;64375;51.540;7.364;2023-06-10T06:49:03;22.90;81.50
4908;DHT22;64375;51.540;7.364;2023-06-10T06:51:34;23.00;81.60
4908;DHT22;64375;51.540;7.364;2023-06-10T06:54:04;23.00;80.90
4908;DHT22;64375;51.540;7.364;2023-06-10T06:56:38;22.90;81.60
4908;DHT22;64375;51.540;7.364;2023-06-10T06:59:06;23.00;82.20
4908;DHT22;64375;51.540;7.364;2023-06-10T07:01:37;23.10;82.40
4908;DHT22;64375;51.540;7.364;2023-06-10T07:04:08;23.30;81.50
4908;DHT22;64375;51.540;7.364;2023-06-10T07:06:42;23.50;82.10
4908;DHT22;64375;51.540;7.364;2023-06-10T07:09:19;23.60;81.90
4908;DHT22;64375;51.540;7.364;2023-06-10T07:11:50;23.70;82.10
4908;DHT22;64375;51.540;7.364;2023-06-10T07:14:18;23.90;83.00
4908;DHT22;64375;51.540;7.364;2023-06-10T07:16:58;24.00;82.40
4908;DHT22;64375;51.540;7.364;2023-06-10T07:19:27;24.00;80.00
4908;DHT22;64375;51.540;7.364;2023-06-10T07:21:55;24.10;80.90
4908;DHT22;64375;51.540;7.364;2023-06-10T07:24:23;24.10;80.60
4908;DHT22;64375;51.540;7.364;2023-06-10T07:26:57;24.20;80.60
4908;DHT22;64375;51.540;7.364;2023-06-10T07:29:25;24.20;81.90
4908;DHT22;64375;51.540;7.364;2023-06-10T07:31:53;24.40;81.20
4908;DHT22;64375;51.540;7.364;2023-06-10T07:34:21;24.50;80.80
4908;DHT22;64375;51.540;7.364;2023-06-10T07:36:50;24.50;80.50
4908;DHT22;64375;51.540;7.364;2023-06-10T07:39:18;24.50;81.90
4908;DHT22;64375;51.540;7.364;2023-06-10T07:41:52;24.40;80.40
4908;DHT22;64375;51.540;7.364;2023-06-10T07:44:23;24.50;80.50
4908;DHT22;64375;51.540;7.364;2023-06-10T07:46:51;24.40;79.60
4908;DHT22;64375;51.540;7.364;2023-06-10T07:49:19;24.40;80.20
4908;DHT22;64375;51.540;7.364;2023-06-10T07:51:47;24.40;80.40
4908;DHT22;64375;51.540;7.364;2023-06-10T07:54:21;24.50;79.90
4908;DHT22;64375;51.540;7.364;2023-06-10T07:56:49;24.60;79.50
4908;DHT22;64375;51.540;7.364;2023-06-10T07:59:28;24.40;79.00
4908;DHT22;64375;51.540;7.364;2023-06-10T08:01:58;24.50;79.30
4908;DHT22;64375;51.540;7.364;2023-06-10T08:04:26;24.50;79.20
4908;DHT22;64375;51.540;7.364;2023-06-10T08:06:54;24.60;78.80
4908;DHT22;64375;51.540;7.364;2023-06-10T08:09:24;24.50;79.40
4908;DHT22;64375;51.540;7.364;2023-06-10T08:11:52;24.60;79.40
4908;DHT22;64375;51.540;7.364;2023-06-10T08:14:20;24.60;79.10
4908;DHT22;64375;51.540;7.364;2023-06-10T08:16:48;24.60;78.30
4908;DHT22;64375;51.540;7.364;2023-06-10T08:19:19;24.60;79.20
4908;DHT22;64375;51.540;7.364;2023-06-10T08:21:46;24.70;79.70
4908;DHT22;64375;51.540;7.364;2023-06-10T08:24:14;24.70;77.80
4908;DHT22;64375;51.540;7.364;2023-06-10T08:26:46;24.70;79.20
4908;DHT22;64375;51.540;7.364;2023-06-10T08:29:14;24.90;80.10
4908;DHT22;64375;51.540;7.364;2023-06-10T08:31:42;25.00;79.70
4908;DHT22;64375;51.540;7.364;2023-06-10T08:34:10;25.10;81.20
4908;DHT22;64375;51.540;7.364;2023-06-10T08:36:38;25.10;77.70
4908;DHT22;64375;51.540;7.364;2023-06-10T08:39:06;25.00;76.60
4908;DHT22;64375;51.540;7.364;2023-06-10T08:41:44;25.00;76.80
4908;DHT22;64375;51.540;7.364;2023-06-10T08:44:19;24.90;77.80
4908;DHT22;64375;51.540;7.364;2023-06-10T08:46:50;25.10;78.10
4908;DHT22;64375;51.540;7.364;2023-06-10T08:49:22;25.10;77.50
4908;DHT22;64375;51.540;7.364;2023-06-10T08:51:50;25.10;77.30
4908;DHT22;64375;51.540;7.364;2023-06-10T08:54:22;25.10;77.40
4908;DHT22;64375;51.540;7.364;2023-06-10T08:56:55;25.10;78.60
4908;DHT22;64375;51.540;7.364;2023-06-10T08:59:25;25.20;78.10
4908;DHT22;64375;51.540;7.364;2023-06-10T09:01:56;25.20;77.10
4908;DHT22;64375;51.540;7.364;2023-06-10T09:04:25;25.30;77.50
4908;DHT22;64375;51.540;7.364;2023-06-10T09:06:53;25.30;77.50
4908;DHT22;64375;51.540;7.364;2023-06-10T09:09:23;25.40;77.90
4908;DHT22;64375;51.540;7.364;2023-06-10T09:11:51;25.30;77.90
4908;DHT22;64375;51.540;7.364;2023-06-10T09:14:19;25.40;78.80
4908;DHT22;64375;51.540;7.364;2023-06-10T09:16:48;25.50;77.20
4908;DHT22;64375;51.540;7.364;2023-06-10T09:19:16;25.50;78.00
4908;DHT22;64375;51.540;7.364;2023-06-10T09:21:47;25.50;77.40
4908;DHT22;64375;51.540;7.364;2023-06-10T09:24:15;25.50;78.30
4908;DHT22;64375;51.540;7.364;2023-06-10T09:26:44;25.60;79.50
4908;DHT22;64375;51.540;7.364;2023-06-10T09:29:24;25.70;77.80
4908;DHT22;64375;51.540;7.364;2023-06-10T09:31:53;25.80;78.00
4908;DHT22;64375;51.540;7.364;2023-06-10T09:34:25;25.80;77.80
4908;DHT22;64375;51.540;7.364;2023-06-10T09:36:56;25.80;78.10
4908;DHT22;64375;51.540;7.364;2023-06-10T09:39:24;25.70;76.10
4908;DHT22;64375;51.540;7.364;2023-06-10T09:41:52;25.60;75.10
4908;DHT22;64375;51.540;7.364;2023-06-10T09:44:23;25.80;77.50
4908;DHT22;64375;51.540;7.364;2023-06-10T09:46:56;25.80;76.60
4908;DHT22;64375;51.540;7.364;2023-06-10T09:49:29;26.00;77.60
4908;DHT22;64375;51.540;7.364;2023-06-10T09:51:59;26.10;76.50
4908;DHT22;64375;51.540;7.364;2023-06-10T09:54:31;26.20;75.00
4908;DHT22;64375;51.540;7.364;2023-06-10T09:57:07;26.30;73.70
4908;DHT22;64375;51.540;7.364;2023-06-10T09:59:37;26.20;73.40
4908;DHT22;64375;51.540;7.364;2023-06-10T10:02:06;26.20;74.30
4908;DHT22;64375;51.540;7.364;2023-06-10T10:05:02;26.30;74.50
4908;DHT22;64375;51.540;7.364;2023-06-10T10:07:30;26.30;75.00
4908;DHT22;64375;51.540;7.364;2023-06-10T10:10:03;26.30;73.50
4908;DHT22;64375;51.540;7.364;2023-06-10T10:12:32;26.40;74.60
4908;DHT22;64375;51.540;7.364;2023-06-10T10:15:02;26.50;74.90
4908;DHT22;64375;51.540;7.364;2023-06-10T10:17:39;26.50;74.70
4908;DHT22;64375;51.540;7.364;2023-06-10T10:20:12;26.50;74.30
4908;DHT22;64375;51.540;7.364;2023-06-10T10:22:47;26.50;73.20
4908;DHT22;64375;51.540;7.364;2023-06-10T10:25:28;26.60;75.70
4908;DHT22;64375;51.540;7.364;2023-06-10T10:28:03;26.60;73.70
4908;DHT22;64375;51.540;7.364;2023-06-10T10:30:39;26.70;73.90
4908;DHT22;64375;51.540;7.364;2023-06-10T10:33:13;26.70;73.50
4908;DHT22;64375;51.540;7.364;2023-06-10T10:35:49;26.80;73.60
4908;DHT22;64375;51.540;7.364;2023-06-10T10:38:17;26.80;72.50
4908;DHT22;64375;51.540;7.364;2023-06-10T10:40:46;26.80;72.40
4908;DHT22;64375;51.540;7.364;2023-06-10T10:43:23;26.70;70.70
4908;DHT22;64375;51.540;7.364;2023-06-10T10:45:58;26.60;71.70
4908;DHT22;64375;51.540;7.364;2023-06-10T10:48:37;26.60;72.10
4908;DHT22;64375;51.540;7.364;2023-06-10T10:51:08;26.70;72.40
4908;DHT22;64375;51.540;7.364;2023-06-10T10:53:38;26.80;73.00
4908;DHT22;64375;51.540;7.364;2023-06-10T10:56:14;26.80;68.70
4908;DHT22;64375;51.540;7.364;2023-06-10T10:59:03;26.90;70.40
4908;DHT22;64375;51.540;7.364;2023-06-10T11:01:40;27.00;72.10
4908;DHT22;64375;51.540;7.364;2023-06-10T11:04:10;27.00;72.10
4908;DHT22;64375;51.540;7.364;2023-06-10T11:06:50;27.10;72.00
4908;DHT22;64375;51.540;7.364;2023-06-10T11:09:26;27.10;68.80
4908;DHT22;64375;51.540;7.364;2023-06-10T11:11:57;27.10;70.50
4908;DHT22;64375;51.540;7.364;2023-06-10T11:14:29;27.20;68.30
4908;DHT22;64375;51.540;7.364;2023-06-10T11:16:58;27.30;67.40
4908;DHT22;64375;51.540;7.364;2023-06-10T11:19:34;27.40;69.00
4908;DHT22;64375;51.540;7.364;2023-06-10T11:22:05;27.50;69.50
4908;DHT22;64375;51.540;7.364;2023-06-10T11:24:35;27.50;66.50
4908;DHT22;64375;51.540;7.364;2023-06-10T11:27:15;27.40;66.70
4908;DHT22;64375;51.540;7.364;2023-06-10T11:30:17;27.40;67.90
4908;DHT22;64375;51.540;7.364;2023-06-10T11:32:50;27.50;68.10
4908;DHT22;64375;51.540;7.364;2023-06-10T11:35:23;27.50;67.30
4908;DHT22;64375;51.540;7.364;2023-06-10T11:37:51;27.40;67.00
4908;DHT22;64375;51.540;7.364;2023-06-10T11:40:19;27.40;66.10
4908;DHT22;64375;51.540;7.364;2023-06-10T11:42:50;27.50;68.20
4908;DHT22;64375;51.540;7.364;2023-06-10T11:45:21;27.60;67.50
4908;DHT22;64375;51.540;7.364;2023-06-10T11:47:56;27.60;68.60
4908;DHT22;64375;51.540;7.364;2023-06-10T11:50:30;27.70;68.10
4908;DHT22;64375;51.540;7.364;2023-06-10T11:53:01;27.80;66.80
4908;DHT22;64375;51.540;7.364;2023-06-10T11:55:41;27.90;65.60
4908;DHT22;64375;51.540;7.364;2023-06-10T11:58:21;27.80;67.10
4908;DHT22;64375;51.540;7.364;2023-06-10T12:00:54;27.80;65.50
4908;DHT22;64375;51.540;7.364;2023-06-10T12:03:25;27.80;66.90
4908;DHT22;64375;51.540;7.364;2023-06-10T12:05:56;28.00;65.00
4908;DHT22;64375;51.540;7.364;2023-06-10T12:08:25;28.00;66.60
4908;DHT22;64375;51.540;7.364;2023-06-10T12:10:54;28.10;64.50
4908;DHT22;64375;51.540;7.364;2023-06-10T12:13:22;28.00;65.90
4908;DHT22;64375;51.540;7.364;2023-06-10T12:15:50;28.10;65.50
4908;DHT22;64375;51.540;7.364;2023-06-10T12:18:19;28.00;65.50
4908;DHT22;64375;51.540;7.364;2023-06-10T12:20:48;28.00;65.80
4908;DHT22;64375;51.540;7.364;2023-06-10T12:23:18;28.00;64.30
4908;DHT22;64375;51.540;7.364;2023-06-10T12:25:52;27.90;65.00
4908;DHT22;64375;51.540;7.364;2023-06-10T12:28:21;28.10;64.80
4908;DHT22;64375;51.540;7.364;2023-06-10T12:30:50;28.00;66.10
4908;DHT22;64375;51.540;7.364;2023-06-10T12:33:18;28.10;63.90
4908;DHT22;64375;51.540;7.364;2023-06-10T12:35:50;28.00;63.70
4908;DHT22;64375;51.540;7.364;2023-06-10T12:38:24;28.20;63.90
4908;DHT22;64375;51.540;7.364;2023-06-10T12:41:01;28.20;62.60
4908;DHT22;64375;51.540;7.364;2023-06-10T12:43:31;28.20;64.90
4908;DHT22;64375;51.540;7.364;2023-06-10T12:46:08;28.20;61.60
4908;DHT22;64375;51.540;7.364;2023-06-10T12:48:56;28.30;62.80
4908;DHT22;64375;51.540;7.364;2023-06-10T12:51:24;28.40;62.30
4908;DHT22;64375;51.540;7.364;2023-06-10T12:53:53;28.40;59.40
4908;DHT22;64375;51.540;7.364;2023-06-10T12:56:23;28.40;60.20
4908;DHT22;64375;51.540;7.364;2023-06-10T12:58:54;28.40;61.60
4908;DHT22;64375;51.540;7.364;2023-06-10T13:01:22;28.30;61.50
4908;DHT22;64375;51.540;7.364;2023-06-10T13:03:55;28.40;61.80
4908;DHT22;64375;51.540;7.364;2023-06-10T13:06:23;28.60;61.70
4908;DHT22;64375;51.540;7.364;2023-06-10T13:08:53;28.60;59.90
4908;DHT22;64375;51.540;7.364;2023-06-10T13:11:21;28.60;60.30
4908;DHT22;64375;51.540;7.364;2023-06-10T13:13:55;28.50;58.20
4908;DHT22;64375;51.540;7.364;2023-06-10T13:16:26;28.50;59.50
4908;DHT22;64375;51.540;7.364;2023-06-10T13:18:54;28.50;59.20
4908;DHT22;64375;51.540;7.364;2023-06-10T13:21:22;28.50;60.50
4908;DHT22;64375;51.540;7.364;2023-06-10T13:23:54;28.50;62.00
4908;DHT22;64375;51.540;7.364;2023-06-10T13:26:22;28.40;58.10
4908;DHT22;64375;51.540;7.364;2023-06-10T13:28:56;28.30;59.90
4908;DHT22;64375;51.540;7.364;2023-06-10T13:31:24;28.50;60.50
4908;DHT22;64375;51.540;7.364;2023-06-10T13:33:53;28.50;59.30
4908;DHT22;64375;51.540;7.364;2023-06-10T13:36:24;28.50;59.70
4908;DHT22;64375;51.540;7.364;2023-06-10T13:38:59;28.50;61.60
4908;DHT22;64375;51.540;7.364;2023-06-10T13:41:33;28.60;62.80
4908;DHT22;64375;51.540;7.364;2023-06-10T13:44:01;28.50;60.20
4908;DHT22;64375;51.540;7.364;2023-06-10T13:46:29;28.50;59.50
4908;DHT22;64375;51.540;7.364;2023-06-10T13:49:00;28.50;60.40
4908;DHT22;64375;51.540;7.364;2023-06-10T13:51:28;28.40;59.80
4908;DHT22;64375;51.540;7.364;2023-06-10T13:53:56;28.60;60.40
4908;DHT22;64375;51.540;7.364;2023-06-10T13:56:28;28.60;60.00
4908;DHT22;64375;51.540;7.364;2023-06-10T13:58:56;28.60;62.70
4908;DHT22;64375;51.540;7.364;2023-06-10T14:01:27;28.60;59.70
4908;DHT22;64375;51.540;7.364;2023-06-10T14:03:55;28.50;60.40
4908;DHT22;64375;51.540;7.364;2023-06-10T14:06:23;28.40;59.80
4908;DHT22;64375;51.540;7.364;2023-06-10T14:08:51;28.50;59.90
4908;DHT22;64375;51.540;7.364;2023-06-10T14:11:25;28.60;60.40
4908;DHT22;64375;51.540;7.364;2023-06-10T14:13:56;28.60;60.80
4908;DHT22;64375;51.540;7.364;2023-06-10T14:16:30;28.70;60.10
4908;DHT22;64375;51.540;7.364;2023-06-10T14:18:58;28.90;61.30
4908;DHT22;64375;51.540;7.364;2023-06-10T14:21:26;28.80;60.70
4908;DHT22;64375;51.540;7.364;2023-06-10T14:23:57;28.80;60.30
4908;DHT22;64375;51.540;7.364;2023-06-10T14:26:35;28.80;61.30
4908;DHT22;64375;51.540;7.364;2023-06-10T14:29:06;28.80;60.00
4908;DHT22;64375;51.540;7.364;2023-06-10T14:31:37;28.80;59.90
4908;DHT22;64375;51.540;7.364;2023-06-10T14:34:05;28.80;60.90
4908;DHT22;64375;51.540;7.364;2023-06-10T14:36:35;28.90;59.70
4908;DHT22;64375;51.540;7.364;2023-06-10T14:39:06;28.90;59.50
4908;DHT22;64375;51.540;7.364;2023-06-10T14:41:36;28.90;61.50
4908;DHT22;64375;51.540;7.364;2023-06-10T14:44:09;28.80;60.50
4908;DHT22;64375;51.540;7.364;2023-06-10T14:46:37;29.00;62.60
4908;DHT22;64375;51.540;7.364;2023-06-10T14:49:08;29.10;59.90
4908;DHT22;64375;51.540;7.364;2023-06-10T14:51:42;29.00;59.30
4908;DHT22;64375;51.540;7.364;2023-06-10T14:54:11;28.90;61.40
4908;DHT22;64375;51.540;7.364;2023-06-10T14:56:40;29.00;60.80
4908;DHT22;64375;51.540;7.364;2023-06-10T14:59:11;29.10;60.10
4908;DHT22;64375;51.540;7.364;2023-06-10T15:01:39;29.20;60.00
4908;DHT22;64375;51.540;7.364;2023-06-10T15:04:07;29.10;60.20
4908;DHT22;64375;51.540;7.364;2023-06-10T15:06:38;29.20;60.40
4908;DHT22;64375;51.540;7.364;2023-06-10T15:09:14;29.00;58.60
4908;DHT22;64375;51.540;7.364;2023-06-10T15:11:46;29.00;59.40
4908;DHT22;64375;51.540;7.364;2023-06-10T15:14:22;28.90;59.40
4908;DHT22;64375;51.540;7.364;2023-06-10T15:16:53;28.80;59.40
4908;DHT22;64375;51.540;7.364;2023-06-10T15:19:25;28.80;60.60
4908;DHT22;64375;51.540;7.364;2023-06-10T15:21:56;28.80;59.10
4908;DHT22;64375;51.540;7.364;2023-06-10T15:24:24;28.80;60.30
4908;DHT22;64375;51.540;7.364;2023-06-10T15:26:54;28.80;60.20
4908;DHT22;64375;51.540;7.364;2023-06-10T15:29:22;28.80;61.40
4908;DHT22;64375;51.540;7.364;2023-06-10T15:31:53;28.80;60.20
4908;DHT22;64375;51.540;7.364;2023-06-10T15:34:21;28.80;60.80
4908;DHT22;64375;51.540;7.364;2023-06-10T15:36:49;28.80;60.40
4908;DHT22;64375;51.540;7.364;2023-06-10T15:39:25;28.70;60.50
4908;DHT22;64375;51.540;7.364;2023-06-10T15:41:58;28.70;59.90
4908;DHT22;64375;51.540;7.364;2023-06-10T15:44:26;28.70;60.50
4908;DHT22;64375;51.540;7.364;2023-06-10T15:47:00;28.70;60.40
4908;DHT22;64375;51.540;7.364;2023-06-10T15:49:28;28.70;61.10
4908;DHT22;64375;51.540;7.364;2023-06-10T15:51:56;28.70;61.40
4908;DHT22;64375;51.540;7.364;2023-06-10T15:54:30;28.60;60.50
4908;DHT22;64375;51.540;7.364;2023-06-10T15:57:10;28.60;60.60
4908;DHT22;64375;51.540;7.364;2023-06-10T15:59:38;28.80;61.60
4908;DHT22;64375;51.540;7.364;2023-06-10T16:02:20;28.80;60.60
4908;DHT22;64375;51.540;7.364;2023-06-10T16:04:53;28.90;61.10
4908;DHT22;64375;51.540;7.364;2023-06-10T16:07:21;28.70;60.20
4908;DHT22;64375;51.540;7.364;2023-06-10T16:09:49;28.80;61.30
4908;DHT22;64375;51.540;7.364;2023-06-10T16:12:22;28.80;61.30